Time;durP1;ratioP1;P1;durP2;ratioP2;P2;SDS_P1;SDS_P2;PMS_P1;PMS_P2;Temp;Humidity;BMP_temperature;BMP_pressure;BME280_temperature;BME280_humidity;BME280_pressure;Samples;Min_cycle;Max_cycle;Signal;HPM_P1;HPM_P2
2021/03/10 00:00:12;;;;;;;16.70;11.47;;;-1.40;97.40;;;-3.89;100.00;100651.50;5028428;27;100767;-61
2021/03/10 00:02:40;;;;;;;21.30;12.50;;;-1.60;97.30;;;-3.90;100.00;100652.41;5028458;27;100063;-62
2021/03/10 00:05:08;;;;;;;16.37;11.30;;;-0.70;97.70;;;-3.83;100.00;100654.72;5029165;27;99876;-61
2021/03/10 00:07:36;;;;;;;17.07;12.47;;;-1.60;97.60;;;-3.81;100.00;100657.28;5027803;27;100509;-61
2021/03/10 00:10:06;;;;;;;18.97;13.00;;;-1.30;98.10;;;-3.87;100.00;100661.00;5027408;27;101214;-62
2021/03/10 00:12:32;;;;;;;17.60;13.53;;;-1.60;98.00;;;-3.83;100.00;100656.50;5028228;27;100168;-61
2021/03/10 00:14:59;;;;;;;18.37;11.30;;;-1.70;98.20;;;-3.91;100.00;100659.41;5028531;27;100156;-62
2021/03/10 00:17:25;;;;;;;16.53;11.47;;;-1.70;98.30;;;-3.63;100.00;100662.66;5027348;27;101231;-60
2021/03/10 00:19:52;;;;;;;16.47;11.07;;;-1.80;99.00;;;-3.74;100.00;100662.25;5028388;27;100323;-62
2021/03/10 00:22:18;;;;;;;17.03;12.57;;;-1.40;99.40;;;-3.78;100.00;100665.03;5028121;27;100232;-60
2021/03/10 00:24:45;;;;;;;14.83;11.23;;;-1.60;99.60;;;-3.69;100.00;100662.03;5029562;27;100115;-61
2021/03/10 00:27:23;;;;;;;18.43;11.73;;;-0.70;99.90;;;-3.77;100.00;100656.25;5028016;27;100433;-61
2021/03/10 00:29:51;;;;;;;17.93;11.53;;;-1.70;99.90;;;-3.71;100.00;100669.94;5028319;27;100721;-61
2021/03/10 00:32:18;;;;;;;16.13;10.73;;;-1.80;99.90;;;-3.74;100.00;100664.00;5027721;27;100176;-60
2021/03/10 00:34:44;;;;;;;20.23;11.93;;;-1.70;99.90;;;-3.69;100.00;100662.03;5029085;27;100053;-61
2021/03/10 00:37:11;;;;;;;19.87;11.27;;;-1.80;99.90;;;-3.76;100.00;100656.22;5027606;27;101873;-60
2021/03/10 00:39:37;;;;;;;15.97;11.33;;;-1.80;99.90;;;-3.70;100.00;100666.41;5028334;27;100534;-61
2021/03/10 00:42:05;;;;;;;14.17;9.53;;;-1.70;99.90;;;-3.36;100.00;100658.13;5028633;27;100365;-59
2021/03/10 00:44:32;;;;;;;13.83;9.30;;;-1.90;99.90;;;-3.29;100.00;100656.94;5028851;27;100137;-61
2021/03/10 00:46:58;;;;;;;19.23;12.10;;;-1.70;99.90;;;-3.33;100.00;100657.13;5028269;27;100938;-61
2021/03/10 00:49:25;;;;;;;16.87;11.53;;;-1.70;99.90;;;-3.81;100.00;100660.75;5027569;27;101409;-66
2021/03/10 00:51:51;;;;;;;15.53;11.10;;;-1.80;99.90;;;-3.98;100.00;100663.16;5028280;27;100221;-62
2021/03/10 00:54:18;;;;;;;16.03;11.00;;;-1.30;99.90;;;-4.04;100.00;100666.84;5027985;27;100209;-61
2021/03/10 00:56:44;;;;;;;21.03;11.90;;;-1.60;99.90;;;-4.07;100.00;100666.97;5027515;27;100678;-62
2021/03/10 00:59:11;;;;;;;16.90;10.97;;;-1.60;99.90;;;-4.17;100.00;100668.22;5008710;27;103204;-61
2021/03/10 01:01:38;;;;;;;19.87;11.37;;;-0.60;99.90;;;-4.16;100.00;100661.22;5028565;27;100371;-61
2021/03/10 01:04:05;;;;;;;13.73;10.83;;;-1.50;99.90;;;-4.14;100.00;100662.88;5028361;27;100007;-60
2021/03/10 01:06:31;;;;;;;18.10;11.60;;;-1.50;99.90;;;-4.22;100.00;100653.63;5027069;27;101092;-61
2021/03/10 01:08:58;;;;;;;17.57;10.03;;;-1.70;99.90;;;-4.19;100.00;100658.72;5027602;27;101516;-61
2021/03/10 01:11:24;;;;;;;15.80;10.80;;;-1.60;99.90;;;-4.25;100.00;100649.34;5028325;27;100113;-61
2021/03/10 01:13:51;;;;;;;16.10;10.90;;;-1.60;99.90;;;-4.30;100.00;100653.03;5028537;27;100073;-60
2021/03/10 01:16:18;;;;;;;17.97;11.33;;;-1.60;99.90;;;-4.33;100.00;100650.56;5027730;27;101771;-60
2021/03/10 01:18:45;;;;;;;16.70;11.20;;;-1.70;99.90;;;-4.41;100.00;100648.19;5027333;27;101196;-62
2021/03/10 01:21:12;;;;;;;19.03;11.77;;;-1.70;99.90;;;-4.42;100.00;100647.34;5028585;27;100179;-59
2021/03/10 01:23:38;;;;;;;16.07;10.60;;;-0.80;99.90;;;-4.44;100.00;100645.69;5031229;27;100316;-61
2021/03/10 01:26:05;;;;;;;16.30;11.33;;;-1.40;99.90;;;-4.49;100.00;100647.63;5030706;27;101303;-62
2021/03/10 01:28:31;;;;;;;16.17;11.53;;;-1.80;99.90;;;-4.52;100.00;100642.50;5030442;27;100911;-61
2021/03/10 01:30:58;;;;;;;16.40;11.70;;;-1.90;99.90;;;-4.50;100.00;100638.94;5030806;27;100019;-63
2021/03/10 01:33:24;;;;;;;14.40;10.97;;;-1.70;99.90;;;-4.59;100.00;100634.06;5030575;27;101128;-62
2021/03/10 01:35:51;;;;;;;17.13;12.27;;;-2.00;99.90;;;-4.58;100.00;100642.75;5030617;27;100759;-61
2021/03/10 01:38:18;;;;;;;15.97;12.03;;;-2.00;99.90;;;-4.64;100.00;100635.97;5030763;27;101207;-61
2021/03/10 01:40:44;;;;;;;17.03;11.73;;;-2.00;99.90;;;-4.65;100.00;100641.25;5031725;27;100329;-62
2021/03/10 01:43:11;;;;;;;16.00;11.03;;;-2.30;99.90;;;-4.70;100.00;100639.63;5031714;27;100651;-61
2021/03/10 01:45:38;;;;;;;19.20;11.77;;;-2.20;99.90;;;-4.74;100.00;100640.66;5031032;27;100833;-60
2021/03/10 01:48:07;;;;;;;19.13;12.50;;;-2.40;99.90;;;-4.81;100.00;100638.31;5031139;27;101483;-60
2021/03/10 01:50:34;;;;;;;17.47;12.23;;;-2.40;99.90;;;-4.79;100.00;100639.97;5032242;27;100065;-64
2021/03/10 01:53:03;;;;;;;18.60;11.50;;;-2.40;99.90;;;-4.76;100.00;100644.22;5031977;27;100159;-62
2021/03/10 01:55:30;;;;;;;17.97;11.63;;;-2.40;99.90;;;-4.76;100.00;100641.63;5039530;27;101167;-63
2021/03/10 01:57:56;;;;;;;19.13;12.93;;;-2.50;99.90;;;-4.84;100.00;100635.81;5030641;27;101654;-61
2021/03/10 02:00:24;;;;;;;27.10;12.90;;;-2.50;99.90;;;-4.87;100.00;100634.16;5030318;27;100219;-60
2021/03/10 02:02:51;;;;;;;19.90;11.80;;;-2.50;99.90;;;-4.86;100.00;100637.63;5031274;27;100295;-61
2021/03/10 02:05:21;;;;;;;18.53;11.87;;;-2.60;99.90;;;-4.84;100.00;100635.81;5030212;27;101643;-59
2021/03/10 02:08:19;;;;;;;19.23;12.30;;;-2.60;99.90;;;-4.88;100.00;100632.47;5030601;27;100341;-60
2021/03/10 02:10:59;;;;;;;18.10;12.13;;;-2.60;99.90;;;-4.77;100.00;100632.06;5030224;27;100102;-63
2021/03/10 02:13:39;;;;;;;16.67;11.50;;;-2.60;99.90;;;-4.72;100.00;100635.41;5030631;27;99906;-62
2021/03/10 02:16:15;;;;;;;15.67;10.83;;;-2.60;99.90;;;-4.80;100.00;100630.41;5031478;27;101168;-63
2021/03/10 02:18:46;;;;;;;16.47;11.53;;;-1.70;99.90;;;-4.82;100.00;100631.41;5030101;27;101236;-62
2021/03/10 02:21:23;;;;;;;17.60;10.97;;;-2.70;99.90;;;-4.78;100.00;100630.38;5030369;27;100090;-62
2021/03/10 02:24:12;;;;;;;15.57;10.87;;;-1.80;99.90;;;-4.79;100.00;100634.75;5031287;27;100195;-63
2021/03/10 02:27:03;;;;;;;17.17;11.30;;;-2.60;99.90;;;-4.80;100.00;100633.03;5030153;27;101675;-62
2021/03/10 02:29:32;;;;;;;17.57;11.40;;;-2.70;99.90;;;-4.75;100.00;100627.66;5030377;27;100559;-62
2021/03/10 02:32:00;;;;;;;16.30;11.33;;;-1.90;99.90;;;-4.82;100.00;100632.22;5029942;27;100294;-62
2021/03/10 02:34:28;;;;;;;15.83;11.20;;;-2.70;99.90;;;-4.77;100.00;100635.53;5030454;27;100426;-63
2021/03/10 02:36:56;;;;;;;17.70;11.37;;;-2.60;99.90;;;-4.81;100.00;100636.53;5029598;27;101005;-61
2021/03/10 02:39:23;;;;;;;17.20;11.63;;;-2.70;99.90;;;-4.75;100.00;100632.88;5030140;27;100431;-60
2021/03/10 02:41:51;;;;;;;20.83;13.03;;;-2.60;99.90;;;-4.84;100.00;100639.28;5030525;27;100268;-62
2021/03/10 02:44:21;;;;;;;17.90;11.40;;;-1.50;99.90;;;-4.82;100.00;100634.84;5033308;27;100210;-61
2021/03/10 02:46:49;;;;;;;18.77;11.60;;;-2.60;99.90;;;-4.89;100.00;100637.72;5029807;27;100540;-64
2021/03/10 02:49:16;;;;;;;17.37;11.83;;;-2.60;99.90;;;-4.96;100.00;100637.09;5029852;27;101388;-61
2021/03/10 02:51:44;;;;;;;20.53;12.87;;;-2.70;99.90;;;-4.98;100.00;100636.28;5030141;27;100186;-62
2021/03/10 02:54:15;;;;;;;20.43;13.30;;;-2.60;99.90;;;-5.00;100.00;100645.06;5030464;27;100167;-63
2021/03/10 02:56:42;;;;;;;16.67;11.73;;;-2.20;99.90;;;-5.00;100.00;100647.69;5029139;27;101484;-63
2021/03/10 02:59:09;;;;;;;18.77;12.33;;;-2.80;99.90;;;-5.03;100.00;100643.41;5009720;27;103083;-63
2021/03/10 03:01:36;;;;;;;17.63;11.87;;;-2.80;99.90;;;-5.01;100.00;100646.81;5029416;27;100243;-64
2021/03/10 03:04:04;;;;;;;19.17;12.30;;;-2.80;99.90;;;-5.01;100.00;100645.97;5030175;27;100186;-64
2021/03/10 03:06:30;;;;;;;19.70;12.40;;;-2.80;99.90;;;-5.06;100.00;100646.09;5029297;27;100664;-63
2021/03/10 03:08:57;;;;;;;19.17;11.70;;;-2.80;99.90;;;-5.12;100.00;100643.72;5029350;27;100294;-63
2021/03/10 03:11:24;;;;;;;17.97;12.03;;;-2.20;99.90;;;-5.12;100.00;100641.13;5029639;27;100471;-61
2021/03/10 03:13:51;;;;;;;18.87;12.73;;;-2.90;99.90;;;-5.14;100.00;100643.78;5029801;27;100298;-64
2021/03/10 03:16:18;;;;;;;20.83;12.87;;;-3.00;99.90;;;-5.16;100.00;100648.19;5028136;27;101730;-61
2021/03/10 03:18:45;;;;;;;17.47;12.77;;;-2.50;99.90;;;-5.15;100.00;100642.06;5028813;27;100281;-62
2021/03/10 03:21:13;;;;;;;18.87;12.23;;;-2.90;99.90;;;-5.17;100.00;100643.84;5028969;27;100048;-64
2021/03/10 03:23:41;;;;;;;21.60;13.67;;;-2.90;99.90;;;-5.20;100.00;100645.75;5030226;27;100402;-63
2021/03/10 03:26:08;;;;;;;20.53;12.90;;;-3.00;99.90;;;-5.30;100.00;100649.53;5029210;27;101878;-61
2021/03/10 03:28:35;;;;;;;20.53;12.53;;;-3.00;99.90;;;-5.32;100.00;100647.00;5029778;27;99980;-64
2021/03/10 03:31:04;;;;;;;19.27;13.50;;;-2.30;99.90;;;-5.31;100.00;100653.88;5029743;27;100050;-65
2021/03/10 03:33:31;;;;;;;15.90;12.13;;;-3.10;99.90;;;-5.27;100.00;100657.25;5030028;27;100113;-64
2021/03/10 03:35:59;;;;;;;20.43;12.33;;;-3.10;99.90;;;-5.30;100.00;100650.38;5029393;27;100764;-61
2021/03/10 03:38:28;;;;;;;20.80;13.50;;;-2.90;99.90;;;-5.32;100.00;100651.34;5029345;27;101107;-61
2021/03/10 03:40:56;;;;;;;19.90;12.73;;;-3.00;99.90;;;-5.35;100.00;100646.22;5029084;27;100190;-64
2021/03/10 03:43:26;;;;;;;20.50;13.37;;;-3.20;99.90;;;-5.36;100.00;100650.59;5028542;27;100046;-60
2021/03/10 03:45:53;;;;;;;20.37;13.17;;;-3.20;99.90;;;-5.36;100.00;100655.81;5008707;27;101322;-61
2021/03/10 03:48:20;;;;;;;20.93;11.77;;;-3.20;99.90;;;-5.45;100.00;100649.16;5008202;27;100458;-62
2021/03/10 03:50:47;;;;;;;18.67;12.10;;;-2.10;99.90;;;-5.48;100.00;100645.78;5008748;27;100496;-63
2021/03/10 03:53:14;;;;;;;17.47;11.93;;;-3.20;99.90;;;-5.51;100.00;100653.69;4989927;27;100139;-63
2021/03/10 03:55:42;;;;;;;21.37;12.93;;;-2.80;99.90;;;-5.51;100.00;100654.53;5010457;27;99986;-64
2021/03/10 03:58:09;;;;;;;21.53;13.70;;;-3.00;99.90;;;-5.55;100.00;100647.69;5030834;27;101222;-64
2021/03/10 04:00:36;;;;;;;19.57;11.87;;;-3.10;99.90;;;-5.45;100.00;100650.91;5029083;27;99966;-63
2021/03/10 04:03:03;;;;;;;20.93;12.33;;;-3.30;99.90;;;-5.48;100.00;100646.63;5029415;27;100292;-60
2021/03/10 04:05:29;;;;;;;19.57;13.20;;;-3.20;99.90;;;-5.40;100.00;100656.81;5026027;27;101646;-63
2021/03/10 04:07:58;;;;;;;20.73;13.73;;;-3.30;99.90;;;-5.35;100.00;100656.66;5029399;27;101091;-63
2021/03/10 04:10:28;;;;;;;17.93;13.07;;;-3.30;99.90;;;-5.38;100.00;100656.75;5029049;27;100446;-63
2021/03/10 04:12:56;;;;;;;18.80;14.03;;;-3.40;99.90;;;-5.38;100.00;100662.81;5030195;27;100378;-63
2021/03/10 04:15:25;;;;;;;22.43;13.97;;;-3.30;99.90;;;-5.40;100.00;100669.84;5028742;27;101331;-63
2021/03/10 04:17:51;;;;;;;21.13;13.67;;;-3.30;99.90;;;-5.42;100.00;100672.50;5027959;27;101424;-63
2021/03/10 04:20:21;;;;;;;20.40;13.63;;;-3.30;99.90;;;-5.41;100.00;100675.97;5027871;27;99980;-63
2021/03/10 04:22:48;;;;;;;22.87;13.83;;;-3.40;99.90;;;-5.45;100.00;100672.63;5028352;27;100167;-64
2021/03/10 04:25:16;;;;;;;21.30;14.07;;;-3.30;99.90;;;-5.48;100.00;100675.31;5027590;27;100786;-63
2021/03/10 04:27:43;;;;;;;21.03;13.23;;;-3.40;99.90;;;-5.52;100.00;100676.28;5027953;27;100599;-64
2021/03/10 04:30:13;;;;;;;23.17;15.63;;;-3.30;99.90;;;-5.52;100.00;100673.69;5029313;27;100243;-63
2021/03/10 04:32:40;;;;;;;23.77;14.77;;;-3.20;99.90;;;-5.57;100.00;100673.00;5028401;27;100106;-63
2021/03/10 04:35:08;;;;;;;21.13;13.77;;;-2.50;99.90;;;-5.61;100.00;100671.38;5027534;27;103291;-64
2021/03/10 04:37:35;;;;;;;22.57;12.83;;;-3.30;99.90;;;-5.57;100.00;100679.97;5027217;27;100204;-63
2021/03/10 04:40:02;;;;;;;20.07;13.27;;;-3.30;99.90;;;-5.56;100.00;100672.06;5008998;27;100102;-62
2021/03/10 04:42:29;;;;;;;21.73;14.73;;;-3.20;99.90;;;-5.56;100.00;100679.03;5028362;27;100210;-62
2021/03/10 04:44:55;;;;;;;19.97;12.10;;;-3.20;99.90;;;-5.45;100.00;100677.84;5008804;27;101532;-63
2021/03/10 04:47:22;;;;;;;20.40;13.53;;;-2.20;99.90;;;-5.31;100.00;100673.91;5029566;27;100505;-63
2021/03/10 04:49:49;;;;;;;20.93;13.47;;;-3.30;99.90;;;-5.52;100.00;100676.28;5028307;27;100025;-63
2021/03/10 04:52:16;;;;;;;22.37;13.13;;;-3.30;99.90;;;-5.42;100.00;100682.06;5027994;27;100503;-64
2021/03/10 04:54:43;;;;;;;20.77;13.13;;;-3.40;99.90;;;-5.44;100.00;100683.91;5028462;27;100601;-63
2021/03/10 04:57:09;;;;;;;22.80;13.90;;;-2.70;99.90;;;-5.55;100.00;100685.97;5027300;27;100468;-64
2021/03/10 04:59:36;;;;;;;19.87;13.13;;;-3.40;99.90;;;-5.60;100.00;100693.09;5027710;27;99983;-64
2021/03/10 05:02:02;;;;;;;20.47;12.77;;;-3.20;99.90;;;-5.25;100.00;100692.84;5028269;27;100264;-61
2021/03/10 05:04:30;;;;;;;23.23;13.50;;;-3.30;99.90;;;-5.49;100.00;100689.25;5027443;27;102196;-64
2021/03/10 05:06:56;;;;;;;21.33;13.63;;;-2.90;99.90;;;-5.68;100.00;100698.50;5027808;27;100702;-63
2021/03/10 05:09:22;;;;;;;25.00;14.80;;;-3.30;99.90;;;-5.73;100.00;100699.56;5028578;27;100645;-64
2021/03/10 05:11:49;;;;;;;23.67;13.70;;;-3.40;99.90;;;-5.90;100.00;100693.13;5028014;27;100056;-64
2021/03/10 05:14:15;;;;;;;20.43;13.60;;;-3.40;99.90;;;-5.96;100.00;100695.94;5027967;27;100660;-62
2021/03/10 05:16:42;;;;;;;20.23;13.70;;;-3.40;99.90;;;-6.02;100.00;100696.09;5028807;27;100560;-63
2021/03/10 05:19:09;;;;;;;22.80;15.03;;;-2.40;99.90;;;-6.09;100.00;100699.78;5032092;27;100241;-64
2021/03/10 05:21:36;;;;;;;26.63;16.00;;;-3.30;99.90;;;-6.14;100.00;100698.19;5031056;27;99997;-63
2021/03/10 05:24:03;;;;;;;24.27;14.40;;;-3.60;99.90;;;-6.19;100.00;100701.78;5026960;27;100943;-64
2021/03/10 05:26:29;;;;;;;21.03;14.03;;;-3.70;99.90;;;-6.23;100.00;100699.31;5027497;27;101193;-64
2021/03/10 05:28:56;;;;;;;28.60;15.13;;;-3.80;99.90;;;-6.24;100.00;100708.00;5027778;27;100073;-62
2021/03/10 05:31:22;;;;;;;23.23;13.73;;;-3.90;99.90;;;-6.24;100.00;100706.25;5024697;27;100086;-62
2021/03/10 05:33:49;;;;;;;25.50;15.30;;;-3.70;99.90;;;-6.22;100.00;100709.69;5026894;27;100836;-63
2021/03/10 05:36:15;;;;;;;25.50;14.97;;;-3.80;99.90;;;-6.25;100.00;100714.13;5008992;27;101698;-63
2021/03/10 05:38:43;;;;;;;25.13;14.53;;;-3.90;99.90;;;-6.26;100.00;100715.88;5025321;27;100048;-64
2021/03/10 05:41:09;;;;;;;20.63;13.37;;;-2.20;99.90;;;-6.23;100.00;100715.78;5027196;27;100468;-63
2021/03/10 05:43:38;;;;;;;25.57;14.83;;;-2.80;99.90;;;-6.13;100.00;100716.38;5024790;27;101086;-63
2021/03/10 05:46:05;;;;;;;26.47;15.27;;;-4.00;99.90;;;-6.08;100.00;100711.91;5023239;27;101404;-64
2021/03/10 05:48:31;;;;;;;21.03;14.33;;;-4.00;99.90;;;-6.07;100.00;100720.56;5025261;27;100153;-63
2021/03/10 05:50:58;;;;;;;28.13;15.43;;;-3.80;99.90;;;-5.99;100.00;100722.06;5024495;27;100310;-63
2021/03/10 05:53:27;;;;;;;32.00;17.53;;;-3.60;99.90;;;-5.89;100.00;100715.69;5023449;27;100972;-63
2021/03/10 05:55:55;;;;;;;23.53;15.67;;;-3.70;99.90;;;-5.71;100.00;100721.22;5023902;27;100550;-63
2021/03/10 05:58:21;;;;;;;27.90;17.37;;;-3.60;99.90;;;-5.73;100.00;100718.66;5023758;27;100292;-64
2021/03/10 06:00:48;;;;;;;26.10;15.53;;;-2.50;99.90;;;-5.64;100.00;100722.75;5023928;27;100392;-64
2021/03/10 06:03:16;;;;;;;24.77;14.90;;;-3.50;99.90;;;-5.51;100.00;100724.94;5024838;27;100498;-63
2021/03/10 06:05:43;;;;;;;34.00;21.63;;;-3.50;99.90;;;-5.52;100.00;100731.06;5024563;27;101698;-64
2021/03/10 06:08:15;;;;;;;43.73;26.30;;;-2.40;99.90;;;-5.50;100.00;100729.25;5027079;27;100491;-63
2021/03/10 06:10:43;;;;;;;31.37;19.97;;;-3.00;99.90;;;-5.36;100.00;100731.44;5028889;27;100008;-64
2021/03/10 06:13:23;;;;;;;27.87;17.47;;;-2.80;99.90;;;-5.33;100.00;100733.97;5028469;27;100399;-63
2021/03/10 06:15:50;;;;;;;28.67;16.17;;;-2.70;99.90;;;-5.26;100.00;100737.22;5028595;27;100921;-65
2021/03/10 06:18:29;;;;;;;23.13;15.27;;;-1.40;99.90;;;-5.25;100.00;100733.72;5030107;27;100164;-62
2021/03/10 06:21:07;;;;;;;24.83;17.70;;;-1.90;99.90;;;-5.20;100.00;100737.91;5029284;27;101754;-63
2021/03/10 06:23:34;;;;;;;25.17;18.00;;;-2.20;99.90;;;-4.97;100.00;100736.31;5029170;27;101127;-63
2021/03/10 06:26:01;;;;;;;24.87;15.90;;;-2.30;99.90;;;-4.76;100.00;100743.44;5029320;27;100849;-62
2021/03/10 06:28:39;;;;;;;26.33;18.17;;;-1.60;99.90;;;-4.91;100.00;100746.53;5029292;27;99920;-63
2021/03/10 06:31:20;;;;;;;25.03;15.20;;;-2.10;99.90;;;-4.88;100.00;100738.63;5029902;27;100239;-64
2021/03/10 06:33:59;;;;;;;22.37;14.63;;;-1.80;99.90;;;-4.91;100.00;100742.16;5029323;27;100179;-63
2021/03/10 06:36:27;;;;;;;21.03;15.43;;;-1.80;99.90;;;-4.98;100.00;100748.50;5029193;27;101220;-63
2021/03/10 06:38:56;;;;;;;26.30;18.87;;;-1.60;99.90;;;-4.98;100.00;100737.22;5030397;27;100112;-62
2021/03/10 06:41:31;;;;;;;28.33;20.43;;;-1.60;99.90;;;-4.84;100.00;100741.09;5030072;27;100074;-63
2021/03/10 06:43:58;;;;;;;25.53;18.33;;;-1.60;99.90;;;-4.68;100.00;100743.16;5029561;27;100929;-63
2021/03/10 06:46:26;;;;;;;22.93;17.90;;;-0.80;99.90;;;-4.58;100.00;100737.59;5029149;27;100780;-63
2021/03/10 06:48:58;;;;;;;23.83;17.30;;;-1.50;99.90;;;-4.42;100.00;100744.00;5029204;27;100111;-63
2021/03/10 06:51:27;;;;;;;24.33;16.73;;;-0.70;99.90;;;-4.41;100.00;100737.88;5029244;27;99959;-63
2021/03/10 06:53:54;;;;;;;27.80;15.57;;;-1.30;99.90;;;-4.24;100.00;100741.66;5029513;27;100763;-62
2021/03/10 06:56:24;;;;;;;21.93;15.13;;;-1.30;99.90;;;-4.25;100.00;100745.19;5028082;27;101312;-63
2021/03/10 06:59:04;;;;;;;23.13;15.20;;;-1.10;99.90;;;-3.99;100.00;100748.56;5028780;27;100104;-63
2021/03/10 07:01:40;;;;;;;21.17;14.10;;;-1.10;99.90;;;-3.69;100.00;100745.72;5029491;27;100233;-63
2021/03/10 07:04:08;;;;;;;24.70;15.33;;;-0.80;99.90;;;-3.27;100.00;100751.94;5029086;27;100741;-62
2021/03/10 07:06:36;;;;;;;23.80;15.73;;;-0.60;99.90;;;-3.04;100.00;100750.19;5029081;27;101529;-63
2021/03/10 07:09:07;;;;;;;21.57;14.97;;;-0.30;99.90;;;-3.05;100.00;100748.47;5028951;27;100023;-62
2021/03/10 07:11:34;;;;;;;21.93;14.73;;;-0.20;99.90;;;-3.07;100.00;100751.16;5029021;27;100217;-63
2021/03/10 07:14:01;;;;;;;21.53;14.67;;;0.20;99.90;;;-3.06;100.00;100752.88;5027930;27;101667;-62
2021/03/10 07:16:32;;;;;;;20.57;14.50;;;0.40;99.90;;;-2.91;100.00;100759.25;5028693;27;100600;-62
2021/03/10 07:18:59;;;;;;;24.13;15.60;;;0.60;99.90;;;-2.53;100.00;100761.16;5029126;27;100092;-62
2021/03/10 07:21:38;;;;;;;23.60;15.47;;;0.80;99.90;;;-2.14;100.00;100759.53;5029259;27;100140;-62
2021/03/10 07:24:13;;;;;;;23.60;14.77;;;1.20;99.90;;;-1.81;100.00;100753.66;5028246;27;100668;-63
2021/03/10 07:26:42;;;;;;;22.73;15.00;;;1.30;99.90;;;-1.58;100.00;100757.00;5029560;27;101488;-62
2021/03/10 07:29:11;;;;;;;21.17;15.00;;;1.60;99.90;;;-1.42;100.00;100751.91;5029103;27;101636;-62
2021/03/10 07:31:38;;;;;;;24.97;15.83;;;1.70;99.90;;;-1.41;100.00;100758.88;5028941;27;100110;-62
2021/03/10 07:34:05;;;;;;;21.10;14.93;;;2.00;99.90;;;-1.27;100.00;100740.69;5028449;27;101123;-62
2021/03/10 07:36:40;;;;;;;22.73;14.90;;;2.90;99.90;;;-1.02;100.00;100749.13;5028695;27;100683;-62
2021/03/10 07:39:20;;;;;;;23.93;15.67;;;2.60;99.90;;;-0.51;100.00;100750.97;5029370;27;100266;-62
2021/03/10 07:41:47;;;;;;;23.33;14.70;;;2.70;99.90;;;0.02;100.00;100742.09;5028548;27;99924;-62
2021/03/10 07:44:20;;;;;;;21.30;14.63;;;3.20;99.90;;;-0.07;100.00;100740.81;5028012;27;100707;-62
2021/03/10 07:46:49;;;;;;;21.80;13.97;;;3.50;99.90;;;0.44;100.00;100751.28;5028173;27;101286;-62
2021/03/10 07:49:20;;;;;;;19.40;14.07;;;4.00;99.90;;;0.81;100.00;100750.97;5028082;27;100133;-62
2021/03/10 07:51:47;;;;;;;23.97;15.90;;;4.30;99.90;;;0.75;100.00;100764.47;5028133;27;100375;-62
2021/03/10 07:54:22;;;;;;;21.53;15.97;;;4.60;98.60;;;0.91;100.00;100761.84;5008971;27;102565;-62
2021/03/10 07:56:49;;;;;;;20.27;15.53;;;4.90;97.40;;;0.79;100.00;100760.75;5027832;27;100427;-62
2021/03/10 07:59:18;;;;;;;21.77;15.20;;;5.50;95.80;;;0.88;100.00;100762.84;5027289;27;100258;-61
2021/03/10 08:01:45;;;;;;;21.70;15.87;;;5.80;93.80;;;1.30;100.00;100764.88;5028470;27;100211;-63
2021/03/10 08:04:14;;;;;;;21.17;15.37;;;6.10;92.90;;;0.87;100.00;100763.78;5028057;27;101036;-62
2021/03/10 08:06:43;;;;;;;20.97;15.23;;;6.40;90.90;;;0.83;100.00;100764.06;5027349;27;101087;-61
2021/03/10 08:09:09;;;;;;;21.07;14.83;;;6.60;87.70;;;1.53;100.00;100762.69;5028479;27;100126;-62
2021/03/10 08:11:37;;;;;;;20.90;15.07;;;6.80;85.90;;;1.39;100.00;100761.69;5028325;27;100331;-62
2021/03/10 08:14:04;;;;;;;21.03;15.33;;;7.00;83.60;;;1.72;100.00;100760.69;5017883;27;100964;-63
2021/03/10 08:16:46;;;;;;;21.40;15.77;;;7.20;81.30;;;1.87;100.00;100764.19;5019935;27;100403;-62
2021/03/10 08:19:13;;;;;;;20.77;14.80;;;7.60;80.50;;;2.40;100.00;100763.59;5028126;27;100003;-62
2021/03/10 08:21:52;;;;;;;21.03;15.97;;;8.00;77.10;;;2.71;100.00;100765.19;5028353;27;100170;-62
2021/03/10 08:24:19;;;;;;;25.63;16.17;;;8.20;76.20;;;3.61;100.00;100768.09;5027140;27;101255;-62
2021/03/10 08:26:50;;;;;;;20.30;15.77;;;8.50;75.10;;;2.81;100.00;100774.22;5027005;27;101291;-62
2021/03/10 08:29:19;;;;;;;20.20;15.23;;;9.00;70.80;;;2.63;100.00;100765.66;5028217;27;100127;-62
2021/03/10 08:31:50;;;;;;;22.00;15.27;;;9.10;69.00;;;2.52;100.00;100770.75;5027901;27;100133;-62
2021/03/10 08:34:30;;;;;;;24.53;16.37;;;9.30;66.70;;;3.42;100.00;100770.28;5027036;27;101665;-62
2021/03/10 08:36:57;;;;;;;20.23;15.47;;;9.50;65.80;;;3.18;100.00;100770.94;5027284;27;99877;-61
2021/03/10 08:39:24;;;;;;;25.30;17.13;;;9.60;64.50;;;4.04;100.00;100768.72;5027792;27;100635;-63
2021/03/10 08:41:53;;;;;;;24.20;16.77;;;9.80;64.00;;;3.74;100.00;100765.47;5028173;27;99963;-62
2021/03/10 08:44:22;;;;;;;20.23;16.07;;;8.70;61.50;;;4.15;100.00;100762.66;5029755;27;101430;-62
2021/03/10 08:46:51;;;;;;;24.00;16.13;;;10.20;60.50;;;4.63;100.00;100753.94;5035069;27;100056;-62
2021/03/10 08:49:25;;;;;;;22.77;16.53;;;10.20;60.70;;;4.99;100.00;100758.41;5008423;27;100339;-63
2021/03/10 08:52:09;;;;;;;23.37;17.10;;;9.90;58.90;;;4.38;100.00;100761.06;5026950;27;100787;-63
2021/03/10 08:54:55;;;;;;;22.27;16.73;;;10.80;58.60;;;5.01;100.00;100758.28;5008225;27;103132;-62
2021/03/10 08:57:25;;;;;;;24.50;17.63;;;11.20;59.00;;;5.39;100.00;100763.44;5027130;27;100255;-62
2021/03/10 08:59:55;;;;;;;24.30;18.10;;;11.30;58.60;;;5.67;100.00;100770.22;5027920;27;100120;-62
2021/03/10 09:02:28;;;;;;;25.43;17.83;;;11.60;58.10;;;5.77;100.00;100755.28;5009022;27;100253;-62
2021/03/10 09:04:55;;;;;;;25.03;18.33;;;11.70;57.20;;;6.03;100.00;100751.53;5007583;27;101963;-62
2021/03/10 09:07:23;;;;;;;23.57;17.33;;;12.20;57.00;;;5.68;100.00;100751.53;5026436;27;100248;-62
2021/03/10 09:09:55;;;;;;;25.10;17.83;;;13.40;56.50;;;4.50;100.00;100750.47;5027495;27;99957;-62
2021/03/10 09:12:23;;;;;;;23.07;17.97;;;12.30;53.80;;;4.95;100.00;100746.31;5007804;27;100398;-63
2021/03/10 09:14:56;;;;;;;26.13;18.63;;;12.50;53.70;;;5.56;100.00;100749.78;5007248;27;103285;-61
2021/03/10 09:17:35;;;;;;;22.70;18.17;;;12.50;53.90;;;5.44;100.00;100752.50;5006009;27;102870;-62
2021/03/10 09:20:05;;;;;;;26.47;18.60;;;12.90;53.40;;;4.44;100.00;100753.56;5024933;27;100496;-62
2021/03/10 09:22:43;;;;;;;23.50;18.80;;;12.70;51.90;;;4.84;100.00;100753.34;5025506;27;100095;-61
2021/03/10 09:25:24;;;;;;;25.47;18.23;;;13.10;51.40;;;5.72;100.00;100745.00;5006689;27;102703;-63
2021/03/10 09:28:08;;;;;;;24.53;18.83;;;14.10;52.40;;;5.89;100.00;100745.56;5024097;27;100936;-62
2021/03/10 09:30:42;;;;;;;21.67;18.03;;;13.20;51.30;;;6.97;100.00;100740.50;5025103;27;100254;-62
2021/03/10 09:33:20;;;;;;;27.37;20.67;;;13.30;51.30;;;5.60;100.00;100737.09;5024829;27;100450;-62
2021/03/10 09:35:54;;;;;;;23.23;19.33;;;13.50;50.40;;;5.93;100.00;100728.44;5024969;27;103700;-62
2021/03/10 09:38:22;;;;;;;25.00;18.67;;;13.70;50.30;;;5.00;100.00;100738.03;5024492;27;102231;-62
2021/03/10 09:40:53;;;;;;;23.43;18.73;;;13.90;48.30;;;5.99;100.00;100735.91;5027608;27;100470;-62
2021/03/10 09:43:22;;;;;;;23.60;19.57;;;14.40;49.40;;;5.24;100.00;100738.03;5002672;27;99944;-63
2021/03/10 09:45:50;;;;;;;23.33;18.73;;;14.90;49.10;;;6.08;100.00;100741.38;5011321;27;102397;-63
2021/03/10 09:48:30;;;;;;;24.07;20.07;;;13.70;48.10;;;5.46;100.00;100748.75;5010647;27;103027;-63
2021/03/10 09:51:05;;;;;;;23.47;18.47;;;14.90;48.40;;;6.34;100.00;100749.97;5011136;27;100104;-64
2021/03/10 09:53:39;;;;;;;24.13;19.63;;;14.10;48.00;;;7.05;100.00;100743.38;5011530;27;100503;-63
2021/03/10 09:56:13;;;;;;;22.17;18.77;;;14.70;48.20;;;7.65;100.00;100746.47;5009846;27;102467;-63
2021/03/10 09:58:49;;;;;;;28.73;20.60;;;14.70;47.90;;;6.04;100.00;100747.91;5027632;27;102558;-62